Time;durP1;ratioP1;P1;durP2;ratioP2;P2;SDS_P1;SDS_P2;PMS_P1;PMS_P2;Temp;Humidity;BMP_temperature;BMP_pressure;BME280_temperature;BME280_humidity;BME280_pressure;Samples;Min_cycle;Max_cycle;Signal;HPM_P1;HPM_P2
2022/12/18 00:02:33;;;;;;;59.63;18.00;;;;;;;;;;6217684;23;20231;-89
2022/12/18 00:05:38;;;;;;;78.53;23.23;;;;;;;;;;6221347;23;20174;-91
2022/12/18 00:08:44;;;;;;;76.27;22.77;;;;;;;;;;6221909;23;20202;-90
2022/12/18 00:11:51;;;;;;;70.60;21.17;;;;;;;;;;6219997;23;20236;-89
2022/12/18 00:14:59;;;;;;;69.57;21.43;;;;;;;;;;6220111;22;20175;-89
2022/12/18 00:18:05;;;;;;;69.23;21.93;;;;;;;;;;6219492;23;20248;-91
2022/12/18 00:21:12;;;;;;;73.23;21.60;;;;;;;;;;6220483;22;20195;-90
2022/12/18 00:24:18;;;;;;;82.40;23.80;;;;;;;;;;6220034;22;20216;-90
2022/12/18 00:27:24;;;;;;;81.30;24.53;;;;;;;;;;6215750;23;20176;-90
2022/12/18 00:30:31;;;;;;;77.47;22.90;;;;;;;;;;6214726;23;20163;-92
2022/12/18 00:33:36;;;;;;;61.80;19.00;;;;;;;;;;6214841;23;20701;-90
2022/12/18 00:36:42;;;;;;;66.53;21.47;;;;;;;;;;6214216;22;20175;-90
2022/12/18 00:39:50;;;;;;;70.90;21.83;;;;;;;;;;6199666;23;20238;-90
2022/12/18 00:43:33;;;;;;;74.97;21.40;;;;;;;;;;6212723;23;20285;-90
2022/12/18 00:46:40;;;;;;;65.77;17.97;;;;;;;;;;6213157;23;20167;-90
2022/12/18 00:49:46;;;;;;;73.20;20.10;;;;;;;;;;6216806;23;20175;-91
2022/12/18 00:52:52;;;;;;;76.30;21.97;;;;;;;;;;6214419;22;20623;-90
2022/12/18 00:55:57;;;;;;;71.10;21.53;;;;;;;;;;6213833;23;20171;-89
2022/12/18 00:59:02;;;;;;;69.23;21.80;;;;;;;;;;6214525;23;20167;-90
2022/12/18 01:02:09;;;;;;;77.40;23.07;;;;;;;;;;6214787;23;20407;-90
2022/12/18 01:05:16;;;;;;;72.67;21.43;;;;;;;;;;6214477;22;20163;-89
2022/12/18 01:08:21;;;;;;;69.13;21.57;;;;;;;;;;6214955;22;20187;-90
2022/12/18 01:11:27;;;;;;;64.23;19.77;;;;;;;;;;6215126;23;20171;-91
2022/12/18 01:14:32;;;;;;;72.40;21.20;;;;;;;;;;6215564;23;20167;-90
2022/12/18 01:17:40;;;;;;;60.70;18.77;;;;;;;;;;6216259;23;20167;-92
2022/12/18 01:20:47;;;;;;;66.00;19.70;;;;;;;;;;6215757;22;20151;-89
2022/12/18 01:23:56;;;;;;;41.23;12.83;;;;;;;;;;6218151;23;20174;-89
2022/12/18 01:27:02;;;;;;;63.83;19.13;;;;;;;;;;6214867;23;20164;-91
2022/12/18 01:30:08;;;;;;;63.27;20.23;;;;;;;;;;6214861;23;20175;-91
2022/12/18 01:33:15;;;;;;;67.50;18.90;;;;;;;;;;6214250;23;20291;-88
2022/12/18 01:36:22;;;;;;;75.93;20.53;;;;;;;;;;6214266;23;20172;-88
2022/12/18 01:39:28;;;;;;;67.23;20.60;;;;;;;;;;6214651;23;20190;-90
2022/12/18 01:42:33;;;;;;;69.83;21.77;;;;;;;;;;6213482;23;20251;-89
2022/12/18 01:45:38;;;;;;;66.23;20.50;;;;;;;;;;6213863;23;20167;-91
2022/12/18 01:48:46;;;;;;;73.63;22.40;;;;;;;;;;6213772;23;20167;-91
2022/12/18 01:51:51;;;;;;;68.93;20.90;;;;;;;;;;6213683;23;20168;-89
2022/12/18 01:54:57;;;;;;;71.70;21.23;;;;;;;;;;6215152;22;20326;-88
2022/12/18 01:58:04;;;;;;;73.73;22.87;;;;;;;;;;6211915;23;20223;-90
2022/12/18 02:01:10;;;;;;;76.77;23.27;;;;;;;;;;6213611;23;20163;-92
2022/12/18 02:04:22;;;;;;;84.20;23.40;;;;;;;;;;6214336;23;20174;-89
2022/12/18 02:07:32;;;;;;;75.57;23.30;;;;;;;;;;6213078;23;20159;-89
2022/12/18 02:10:40;;;;;;;77.20;22.67;;;;;;;;;;6214237;22;20166;-89
2022/12/18 02:13:47;;;;;;;77.87;23.37;;;;;;;;;;6212528;23;20198;-89
2022/12/18 02:16:54;;;;;;;72.07;22.93;;;;;;;;;;6214386;23;20223;-91
2022/12/18 02:20:07;;;;;;;82.03;23.13;;;;;;;;;;6212538;23;20243;-89
2022/12/18 02:23:19;;;;;;;69.30;20.53;;;;;;;;;;6212326;22;20179;-89
2022/12/18 02:26:28;;;;;;;71.50;22.57;;;;;;;;;;6213879;23;20175;-91
2022/12/18 02:29:36;;;;;;;77.13;24.63;;;;;;;;;;6210904;23;20214;-87
2022/12/18 02:32:42;;;;;;;71.70;21.37;;;;;;;;;;6212827;23;20167;-90
2022/12/18 02:35:48;;;;;;;70.53;19.20;;;;;;;;;;6207570;23;20519;-88
2022/12/18 02:38:54;;;;;;;79.13;22.23;;;;;;;;;;6207922;23;20170;-89
2022/12/18 02:42:07;;;;;;;80.97;23.27;;;;;;;;;;6211413;23;20179;-90
2022/12/18 02:45:12;;;;;;;69.27;22.00;;;;;;;;;;6212206;23;20171;-88
2022/12/18 02:48:24;;;;;;;90.17;24.00;;;;;;;;;;6212575;23;20167;-89
2022/12/18 02:51:31;;;;;;;78.03;22.70;;;;;;;;;;6211279;23;20621;-89
2022/12/18 02:54:44;;;;;;;81.60;23.20;;;;;;;;;;6210123;22;20163;-89
2022/12/18 02:57:55;;;;;;;77.80;22.07;;;;;;;;;;6213744;23;20163;-89
2022/12/18 03:01:08;;;;;;;75.40;21.20;;;;;;;;;;6212545;23;20172;-88
2022/12/18 03:04:15;;;;;;;74.17;22.47;;;;;;;;;;6209654;23;20163;-91
2022/12/18 03:07:25;;;;;;;75.67;22.23;;;;;;;;;;6208093;22;20159;-89
2022/12/18 03:10:35;;;;;;;75.93;23.73;;;;;;;;;;6210327;23;20214;-89
2022/12/18 03:13:45;;;;;;;69.37;20.83;;;;;;;;;;6210390;23;20166;-91
2022/12/18 03:16:54;;;;;;;78.03;23.07;;;;;;;;;;6210938;23;20187;-90
2022/12/18 03:20:00;;;;;;;74.17;22.80;;;;;;;;;;6208754;23;20295;-90
2022/12/18 03:23:09;;;;;;;73.73;22.53;;;;;;;;;;6209322;23;20191;-88
2022/12/18 03:26:16;;;;;;;76.57;22.13;;;;;;;;;;6212290;23;20230;-90
2022/12/18 03:29:24;;;;;;;78.70;23.07;;;;;;;;;;6213151;23;20194;-91
2022/12/18 03:32:31;;;;;;;75.63;22.67;;;;;;;;;;6212780;23;20234;-90
2022/12/18 03:35:40;;;;;;;82.40;24.27;;;;;;;;;;6213151;23;20162;-90
2022/12/18 03:38:46;;;;;;;80.87;23.63;;;;;;;;;;6212167;22;20172;-88
2022/12/18 03:41:56;;;;;;;82.80;23.73;;;;;;;;;;6211498;23;20171;-89
2022/12/18 03:45:15;;;;;;;80.90;22.47;;;;;;;;;;6210514;23;20243;-90
2022/12/18 03:48:25;;;;;;;82.10;22.93;;;;;;;;;;6210185;23;20175;-91
2022/12/18 03:51:37;;;;;;;65.13;19.30;;;;;;;;;;6210135;23;20194;-92
2022/12/18 03:54:44;;;;;;;75.70;22.07;;;;;;;;;;6209346;23;20179;-90
2022/12/18 03:57:53;;;;;;;80.47;22.57;;;;;;;;;;6210768;23;20170;-91
2022/12/18 04:01:01;;;;;;;78.97;22.23;;;;;;;;;;6211076;23;20668;-90
2022/12/18 04:04:08;;;;;;;73.07;22.20;;;;;;;;;;6209090;23;20277;-91
2022/12/18 04:07:17;;;;;;;73.83;22.73;;;;;;;;;;6209691;23;20171;-89
2022/12/18 04:10:23;;;;;;;73.27;22.77;;;;;;;;;;6209579;23;20191;-91
2022/12/18 04:13:30;;;;;;;73.40;21.87;;;;;;;;;;6209238;23;20516;-89
2022/12/18 04:16:38;;;;;;;71.57;22.13;;;;;;;;;;6211202;23;20171;-88
2022/12/18 04:19:47;;;;;;;70.50;22.20;;;;;;;;;;6211096;23;20502;-92
2022/12/18 04:22:52;;;;;;;65.93;19.20;;;;;;;;;;6210263;23;20709;-90
2022/12/18 04:25:59;;;;;;;71.43;21.93;;;;;;;;;;6210531;23;20230;-89
2022/12/18 04:29:22;;;;;;;80.37;22.20;;;;;;;;;;6211494;23;20194;-89
2022/12/18 04:33:02;;;;;;;59.60;18.27;;;;;;;;;;6211262;23;20171;-91
2022/12/18 04:36:12;;;;;;;71.20;21.87;;;;;;;;;;6212866;23;20171;-90
2022/12/18 04:39:18;;;;;;;77.70;21.17;;;;;;;;;;6210743;23;20195;-90
2022/12/18 04:42:24;;;;;;;74.10;22.77;;;;;;;;;;6211480;23;20202;-89
2022/12/18 04:45:29;;;;;;;77.67;22.27;;;;;;;;;;6212412;23;20622;-91
2022/12/18 04:48:34;;;;;;;74.83;22.27;;;;;;;;;;6212675;22;20155;-92
2022/12/18 04:51:42;;;;;;;72.50;22.30;;;;;;;;;;6212622;22;20189;-89
2022/12/18 04:54:47;;;;;;;79.70;22.47;;;;;;;;;;6211665;23;20614;-90
2022/12/18 04:57:52;;;;;;;74.37;20.90;;;;;;;;;;6211061;23;20174;-91
2022/12/18 05:00:57;;;;;;;75.67;22.03;;;;;;;;;;6210777;23;20190;-88
2022/12/18 05:04:02;;;;;;;86.90;22.20;;;;;;;;;;6210512;23;20253;-89
2022/12/18 05:07:08;;;;;;;76.13;22.07;;;;;;;;;;6210926;23;20175;-89
2022/12/18 05:10:13;;;;;;;65.67;20.57;;;;;;;;;;6212016;23;20170;-90
2022/12/18 05:13:18;;;;;;;67.03;18.87;;;;;;;;;;6210870;23;20175;-92
2022/12/18 05:16:23;;;;;;;75.57;21.70;;;;;;;;;;6209967;23;20609;-90
2022/12/18 05:19:28;;;;;;;74.10;19.90;;;;;;;;;;6210314;23;20219;-89
2022/12/18 05:22:35;;;;;;;77.33;21.47;;;;;;;;;;6210443;23;20190;-88
2022/12/18 05:25:40;;;;;;;70.40;20.77;;;;;;;;;;6210944;23;20228;-89
2022/12/18 05:28:45;;;;;;;74.77;21.27;;;;;;;;;;6210954;23;20190;-90
2022/12/18 05:31:56;;;;;;;75.33;21.17;;;;;;;;;;6208725;23;20682;-91
2022/12/18 05:35:01;;;;;;;81.40;21.37;;;;;;;;;;6208517;23;20187;-89
2022/12/18 05:38:07;;;;;;;87.23;23.27;;;;;;;;;;6210441;23;20166;-90
2022/12/18 05:41:13;;;;;;;75.07;21.40;;;;;;;;;;6210393;23;20235;-89
2022/12/18 05:44:18;;;;;;;80.47;22.83;;;;;;;;;;6210902;23;20179;-92
2022/12/18 05:47:23;;;;;;;82.00;21.83;;;;;;;;;;6210203;23;20167;-89
2022/12/18 05:50:28;;;;;;;80.60;20.83;;;;;;;;;;6210336;23;20166;-92
2022/12/18 05:53:41;;;;;;;91.97;22.77;;;;;;;;;;6211633;23;20174;-90
2022/12/18 05:56:46;;;;;;;85.77;22.60;;;;;;;;;;6210820;23;20677;-88
2022/12/18 05:59:51;;;;;;;86.57;22.10;;;;;;;;;;6211585;23;20172;-90
2022/12/18 06:02:57;;;;;;;84.43;22.33;;;;;;;;;;6212050;23;20638;-89
2022/12/18 06:06:02;;;;;;;84.73;23.20;;;;;;;;;;6212634;23;20178;-92
2022/12/18 06:09:09;;;;;;;84.63;21.67;;;;;;;;;;6211804;23;20154;-92
2022/12/18 06:12:14;;;;;;;85.33;22.83;;;;;;;;;;6211862;23;20166;-89
2022/12/18 06:15:20;;;;;;;81.40;20.83;;;;;;;;;;6210480;23;20228;-90
2022/12/18 06:18:25;;;;;;;76.67;20.00;;;;;;;;;;6210512;23;20167;-89
2022/12/18 06:21:30;;;;;;;76.80;21.03;;;;;;;;;;6210945;23;20239;-90
2022/12/18 06:24:37;;;;;;;82.07;21.90;;;;;;;;;;6210377;23;20237;-90
2022/12/18 06:27:42;;;;;;;79.20;21.30;;;;;;;;;;6210664;23;20206;-88
2022/12/18 06:30:47;;;;;;;78.90;21.43;;;;;;;;;;6212590;23;20190;-90
2022/12/18 06:33:58;;;;;;;74.70;19.97;;;;;;;;;;6210800;23;20306;-91
2022/12/18 06:37:03;;;;;;;70.13;18.93;;;;;;;;;;6212654;23;20183;-90
2022/12/18 06:40:10;;;;;;;65.00;19.10;;;;;;;;;;6211532;23;20707;-93
2022/12/18 06:43:15;;;;;;;63.20;19.47;;;;;;;;;;6210249;23;20194;-89
2022/12/18 06:46:20;;;;;;;72.73;20.43;;;;;;;;;;6210621;23;20179;-90
2022/12/18 06:49:25;;;;;;;78.70;20.97;;;;;;;;;;6211458;23;20497;-89
2022/12/18 06:52:33;;;;;;;64.43;18.83;;;;;;;;;;6210139;23;20190;-88
2022/12/18 06:55:40;;;;;;;65.63;19.33;;;;;;;;;;6210187;23;20214;-89
2022/12/18 06:58:45;;;;;;;72.73;19.93;;;;;;;;;;6209459;23;20171;-91
2022/12/18 07:01:50;;;;;;;70.17;20.23;;;;;;;;;;6210300;23;20177;-90
2022/12/18 07:04:55;;;;;;;72.57;20.57;;;;;;;;;;6211829;23;20211;-90
2022/12/18 07:08:00;;;;;;;72.73;20.33;;;;;;;;;;6211759;23;20168;-92
2022/12/18 07:11:08;;;;;;;71.53;19.80;;;;;;;;;;6211664;23;20174;-89
2022/12/18 07:14:13;;;;;;;83.03;21.23;;;;;;;;;;6212353;22;20163;-91
2022/12/18 07:17:19;;;;;;;69.77;20.07;;;;;;;;;;6211623;23;20210;-88
2022/12/18 07:20:24;;;;;;;72.87;21.07;;;;;;;;;;6211864;23;20167;-87
2022/12/18 07:23:29;;;;;;;73.43;19.33;;;;;;;;;;6210614;23;20191;-89
2022/12/18 07:26:36;;;;;;;73.00;19.57;;;;;;;;;;6211907;23;20147;-90
2022/12/18 07:29:41;;;;;;;71.53;20.40;;;;;;;;;;6211294;22;20168;-89
2022/12/18 07:32:46;;;;;;;65.90;20.07;;;;;;;;;;6210343;23;20226;-89
2022/12/18 07:35:54;;;;;;;70.47;19.97;;;;;;;;;;6211940;23;20181;-90
2022/12/18 07:39:00;;;;;;;77.00;22.30;;;;;;;;;;6212984;23;20214;-90
2022/12/18 07:42:31;;;;;;;71.57;19.87;;;;;;;;;;6211506;23;20861;-89
2022/12/18 07:45:36;;;;;;;75.63;21.10;;;;;;;;;;6211143;23;20168;-91
2022/12/18 07:48:42;;;;;;;69.90;19.40;;;;;;;;;;6212573;23;20155;-91
2022/12/18 07:51:48;;;;;;;65.97;18.73;;;;;;;;;;6212060;23;20167;-90
2022/12/18 07:54:54;;;;;;;68.90;19.27;;;;;;;;;;6211610;23;20174;-88
2022/12/18 07:58:04;;;;;;;66.17;18.27;;;;;;;;;;6210728;23;20167;-91
2022/12/18 08:01:10;;;;;;;65.17;19.43;;;;;;;;;;6212081;23;20172;-91
2022/12/18 08:04:15;;;;;;;67.67;19.93;;;;;;;;;;6212950;22;20194;-88
2022/12/18 08:07:21;;;;;;;58.07;16.77;;;;;;;;;;6212098;23;20171;-90
2022/12/18 08:10:27;;;;;;;65.97;19.37;;;;;;;;;;6213030;23;20167;-89
2022/12/18 08:13:34;;;;;;;70.33;19.17;;;;;;;;;;6213276;23;20602;-89
2022/12/18 08:16:39;;;;;;;76.93;21.17;;;;;;;;;;6214671;23;20163;-89
2022/12/18 08:19:44;;;;;;;58.90;17.07;;;;;;;;;;6212092;23;20167;-90
2022/12/18 08:22:49;;;;;;;68.83;18.57;;;;;;;;;;6214294;23;20171;-90
2022/12/18 08:25:54;;;;;;;64.87;18.40;;;;;;;;;;6212540;23;20167;-93
2022/12/18 08:29:03;;;;;;;60.97;18.83;;;;;;;;;;6212756;23;20195;-93
2022/12/18 08:32:10;;;;;;;62.23;18.17;;;;;;;;;;6212594;23;20220;-90
2022/12/18 08:35:15;;;;;;;59.33;16.37;;;;;;;;;;6212437;23;20162;-90
2022/12/18 08:38:20;;;;;;;57.90;18.07;;;;;;;;;;6214523;23;20188;-90
2022/12/18 08:41:25;;;;;;;71.10;20.07;;;;;;;;;;6213515;23;20243;-89
2022/12/18 08:44:37;;;;;;;62.83;19.63;;;;;;;;;;6214428;23;20234;-92
2022/12/18 08:47:42;;;;;;;64.80;18.00;;;;;;;;;;6212098;23;20159;-91
2022/12/18 08:50:55;;;;;;;65.17;18.33;;;;;;;;;;6210210;23;20163;-89
2022/12/18 08:54:00;;;;;;;60.80;17.93;;;;;;;;;;6211151;23;20187;-91
2022/12/18 08:57:05;;;;;;;55.30;17.43;;;;;;;;;;6210901;23;20211;-88
2022/12/18 09:00:13;;;;;;;66.60;21.23;;;;;;;;;;6216160;22;20171;-91
2022/12/18 09:03:22;;;;;;;65.33;20.73;;;;;;;;;;6212981;23;20171;-89
2022/12/18 09:06:27;;;;;;;64.40;19.53;;;;;;;;;;6212397;22;20622;-89
2022/12/18 09:09:36;;;;;;;60.63;18.47;;;;;;;;;;6214304;23;20151;-91
2022/12/18 09:12:41;;;;;;;79.83;21.87;;;;;;;;;;6214382;23;20175;-90
2022/12/18 09:15:49;;;;;;;60.57;18.47;;;;;;;;;;6214020;22;20175;-89
2022/12/18 09:18:59;;;;;;;61.50;18.50;;;;;;;;;;6214411;23;20191;-91
2022/12/18 09:22:04;;;;;;;66.47;18.57;;;;;;;;;;6213245;23;20218;-89
2022/12/18 09:25:12;;;;;;;61.17;19.80;;;;;;;;;;6216836;23;20198;-90
2022/12/18 09:28:19;;;;;;;63.47;18.00;;;;;;;;;;6219047;23;20179;-88
2022/12/18 09:31:26;;;;;;;62.43;18.37;;;;;;;;;;6215567;23;20174;-88
2022/12/18 09:34:32;;;;;;;54.90;16.53;;;;;;;;;;6214485;23;20143;-89
2022/12/18 09:37:38;;;;;;;56.57;18.50;;;;;;;;;;6214472;23;20171;-88
2022/12/18 09:40:44;;;;;;;60.07;19.43;;;;;;;;;;6213361;23;20171;-89
2022/12/18 09:43:51;;;;;;;60.03;18.50;;;;;;;;;;6212740;23;20206;-90
2022/12/18 09:47:12;;;;;;;59.70;18.80;;;;;;;;;;6212780;23;20207;-91
2022/12/18 09:50:30;;;;;;;59.37;17.47;;;;;;;;;;6213796;22;20171;-88
2022/12/18 09:53:37;;;;;;;54.90;16.93;;;;;;;;;;6215191;23;20160;-92
2022/12/18 09:56:44;;;;;;;64.77;18.47;;;;;;;;;;6214304;23;20210;-92
2022/12/18 09:59:51;;;;;;;65.23;17.93;;;;;;;;;;6214691;23;20219;-89
2022/12/18 10:03:01;;;;;;;59.93;17.30;;;;;;;;;;6213574;23;20171;-90
2022/12/18 10:06:09;;;;;;;64.33;18.87;;;;;;;;;;6213171;22;20179;-91
2022/12/18 10:09:23;;;;;;;65.23;19.20;;;;;;;;;;6212651;22;20224;-90
2022/12/18 10:12:40;;;;;;;58.83;19.20;;;;;;;;;;6214653;22;20171;-90
2022/12/18 10:15:55;;;;;;;52.47;17.17;;;;;;;;;;6213126;23;20170;-89
2022/12/18 10:19:13;;;;;;;60.60;18.73;;;;;;;;;;6214415;23;20306;-92
2022/12/18 10:22:32;;;;;;;62.30;15.97;;;;;;;;;;6215229;23;20249;-91
2022/12/18 10:25:43;;;;;;;48.60;15.30;;;;;;;;;;6219484;22;20294;-88
2022/12/18 10:28:51;;;;;;;50.07;15.00;;;;;;;;;;6213221;23;20187;-89
2022/12/18 10:32:15;;;;;;;57.83;18.23;;;;;;;;;;6212910;22;20227;-92
2022/12/18 10:35:22;;;;;;;55.47;17.33;;;;;;;;;;6214620;22;20183;-91
2022/12/18 10:38:31;;;;;;;57.83;18.23;;;;;;;;;;6214096;23;20210;-91
2022/12/18 10:41:36;;;;;;;60.47;18.80;;;;;;;;;;6214232;23;20167;-91
2022/12/18 10:44:43;;;;;;;58.47;18.10;;;;;;;;;;6213244;22;20178;-90
2022/12/18 10:47:49;;;;;;;59.77;19.57;;;;;;;;;;6216535;22;20219;-91
2022/12/18 10:50:55;;;;;;;61.37;19.70;;;;;;;;;;6215611;22;20142;-91
2022/12/18 10:54:04;;;;;;;56.90;17.83;;;;;;;;;;6215685;22;20615;-91
2022/12/18 10:57:17;;;;;;;54.23;17.57;;;;;;;;;;6216960;23;20162;-91
2022/12/18 11:00:25;;;;;;;59.63;19.07;;;;;;;;;;6219046;22;20146;-90
2022/12/18 11:03:32;;;;;;;56.63;18.97;;;;;;;;;;6216376;22;20162;-92
2022/12/18 11:06:56;;;;;;;61.13;18.33;;;;;;;;;;6218109;22;20162;-90
2022/12/18 11:10:07;;;;;;;49.20;17.10;;;;;;;;;;6217434;23;20179;-91
2022/12/18 11:13:25;;;;;;;66.73;20.13;;;;;;;;;;6215300;22;20179;-89
2022/12/18 11:16:32;;;;;;;59.57;18.37;;;;;;;;;;6213191;22;20291;-90
2022/12/18 11:19:56;;;;;;;54.57;18.90;;;;;;;;;;6216855;22;20167;-92
2022/12/18 11:23:13;;;;;;;60.40;18.57;;;;;;;;;;6216321;23;20445;-91
2022/12/18 11:26:51;;;;;;;56.00;17.80;;;;;;;;;;6197529;22;20171;-92
2022/12/18 11:30:14;;;;;;;51.00;16.70;;;;;;;;;;6230886;23;20155;-92
2022/12/18 11:33:21;;;;;;;56.93;18.60;;;;;;;;;;6213572;23;20171;-90
2022/12/18 11:36:34;;;;;;;58.70;19.70;;;;;;;;;;6215871;22;20272;-89
2022/12/18 11:39:42;;;;;;;61.60;20.40;;;;;;;;;;6215977;22;20195;-88
2022/12/18 11:43:03;;;;;;;67.47;22.27;;;;;;;;;;6214961;23;20763;-89
2022/12/18 11:46:18;;;;;;;62.63;19.93;;;;;;;;;;6217570;23;20203;-92
2022/12/18 11:49:27;;;;;;;58.30;19.20;;;;;;;;;;6220482;23;20155;-88
2022/12/18 11:56:09;;;;;;;59.20;19.80;;;;;;;;;;6238254;22;20171;-88
2022/12/18 11:59:21;;;;;;;53.73;18.40;;;;;;;;;;6219248;23;20216;-89
2022/12/18 12:02:36;;;;;;;52.40;16.00;;;;;;;;;;6218011;22;20222;-90
2022/12/18 12:05:51;;;;;;;59.83;17.70;;;;;;;;;;6218419;22;20199;-90
2022/12/18 12:09:04;;;;;;;56.13;17.80;;;;;;;;;;6217559;23;20190;-90
2022/12/18 12:12:20;;;;;;;50.13;16.50;;;;;;;;;;6218395;22;20172;-91
2022/12/18 12:15:32;;;;;;;48.97;17.40;;;;;;;;;;6216651;23;20167;-91
2022/12/18 12:18:44;;;;;;;51.50;16.47;;;;;;;;;;6218584;22;20167;-90
2022/12/18 12:21:53;;;;;;;45.10;16.10;;;;;;;;;;6217097;23;20166;-90
2022/12/18 12:25:04;;;;;;;53.93;17.77;;;;;;;;;;6218233;23;20195;-90
2022/12/18 12:28:20;;;;;;;47.63;15.70;;;;;;;;;;6217896;23;20230;-89
2022/12/18 12:31:34;;;;;;;46.97;15.00;;;;;;;;;;6220158;22;20246;-88
2022/12/18 12:34:54;;;;;;;47.77;15.70;;;;;;;;;;6219454;22;20159;-89
2022/12/18 12:38:16;;;;;;;50.17;16.10;;;;;;;;;;6220335;23;20183;-89
2022/12/18 12:48:37;;;;;;;59.00;16.07;;;;;;;;;;6236589;22;20184;-91
2022/12/18 12:51:45;;;;;;;55.47;17.80;;;;;;;;;;6218427;23;20206;-90
2022/12/18 12:54:53;;;;;;;58.47;17.70;;;;;;;;;;6216445;22;20284;-92
2022/12/18 12:58:03;;;;;;;62.43;20.30;;;;;;;;;;6217290;22;20170;-90
2022/12/18 13:01:14;;;;;;;64.83;20.57;;;;;;;;;;6217211;23;20156;-90
2022/12/18 13:04:23;;;;;;;54.17;16.40;;;;;;;;;;6216191;22;20171;-89
2022/12/18 13:07:31;;;;;;;56.50;18.97;;;;;;;;;;6215729;22;20167;-90
2022/12/18 13:10:39;;;;;;;57.13;17.93;;;;;;;;;;6216348;23;20207;-90
2022/12/18 13:13:51;;;;;;;56.10;16.90;;;;;;;;;;6214245;22;20175;-91
2022/12/18 13:17:15;;;;;;;59.70;17.83;;;;;;;;;;6215648;23;20187;-91
2022/12/18 13:20:21;;;;;;;49.00;15.43;;;;;;;;;;6215308;22;20167;-89
2022/12/18 13:23:29;;;;;;;58.13;18.23;;;;;;;;;;6214317;23;20167;-90
2022/12/18 13:26:36;;;;;;;53.03;15.67;;;;;;;;;;6216563;23;20178;-91
2022/12/18 13:29:43;;;;;;;56.60;16.83;;;;;;;;;;6213579;23;20175;-91
2022/12/18 13:32:49;;;;;;;56.33;17.80;;;;;;;;;;6214510;23;20174;-90
2022/12/18 13:35:55;;;;;;;52.20;16.40;;;;;;;;;;6215695;23;20171;-90
2022/12/18 13:39:12;;;;;;;52.63;17.37;;;;;;;;;;6215033;23;20162;-89
2022/12/18 13:46:50;;;;;;;55.93;17.47;;;;;;;;;;6237684;22;20203;-90
2022/12/18 13:50:00;;;;;;;56.30;16.87;;;;;;;;;;6219199;22;20151;-89
2022/12/18 13:53:06;;;;;;;55.37;17.53;;;;;;;;;;6214503;22;20187;-92
2022/12/18 13:56:19;;;;;;;50.53;15.97;;;;;;;;;;6215968;23;20167;-91
2022/12/18 13:59:25;;;;;;;57.77;17.03;;;;;;;;;;6215219;22;20214;-93
2022/12/18 14:02:34;;;;;;;56.00;19.33;;;;;;;;;;6213825;23;20215;-91
2022/12/18 14:05:40;;;;;;;51.27;16.30;;;;;;;;;;6213171;22;20252;-90
2022/12/18 14:08:46;;;;;;;55.07;17.87;;;;;;;;;;6213149;22;20155;-89
2022/12/18 14:11:52;;;;;;;53.17;16.27;;;;;;;;;;6215288;23;20190;-89
2022/12/18 14:18:22;;;;;;;57.67;17.67;;;;;;;;;;6233304;23;20187;-90
2022/12/18 14:21:29;;;;;;;51.97;18.10;;;;;;;;;;6218770;22;20171;-89
2022/12/18 14:24:35;;;;;;;53.13;17.07;;;;;;;;;;6216686;23;20546;-90
2022/12/18 14:27:43;;;;;;;48.13;16.90;;;;;;;;;;6214780;23;20186;-90
2022/12/18 14:30:49;;;;;;;49.67;14.80;;;;;;;;;;6216641;23;20175;-92
2022/12/18 14:33:57;;;;;;;48.77;15.80;;;;;;;;;;6215764;22;20217;-91
2022/12/18 14:37:03;;;;;;;49.57;17.67;;;;;;;;;;6213676;22;20186;-91
2022/12/18 14:40:16;;;;;;;42.80;14.93;;;;;;;;;;6213341;23;20167;-89
2022/12/18 14:43:22;;;;;;;40.07;13.60;;;;;;;;;;6214657;23;20171;-91
2022/12/18 14:46:35;;;;;;;46.10;15.40;;;;;;;;;;6215315;22;20182;-92
2022/12/18 14:49:43;;;;;;;46.43;15.07;;;;;;;;;;6216186;22;20159;-92
2022/12/18 14:52:48;;;;;;;48.27;15.73;;;;;;;;;;6215851;22;20170;-88
2022/12/18 14:55:57;;;;;;;37.83;13.73;;;;;;;;;;6213828;23;20182;-91
2022/12/18 14:59:04;;;;;;;43.20;16.23;;;;;;;;;;6213358;23;20171;-91
2022/12/18 15:02:17;;;;;;;47.17;17.13;;;;;;;;;;6214357;22;20162;-88
2022/12/18 15:05:27;;;;;;;43.07;14.97;;;;;;;;;;6215343;23;20215;-88
2022/12/18 15:08:36;;;;;;;55.43;18.03;;;;;;;;;;6215513;23;20175;-88
2022/12/18 15:11:48;;;;;;;47.03;15.43;;;;;;;;;;6217891;23;20172;-88
2022/12/18 15:14:54;;;;;;;42.13;15.73;;;;;;;;;;6215375;23;20171;-88
2022/12/18 15:18:03;;;;;;;58.57;18.03;;;;;;;;;;6219436;23;20227;-88
2022/12/18 15:21:11;;;;;;;50.13;18.13;;;;;;;;;;6218679;22;20223;-89
2022/12/18 15:24:19;;;;;;;46.30;16.87;;;;;;;;;;6217835;22;20151;-89
2022/12/18 15:27:27;;;;;;;49.27;18.93;;;;;;;;;;6216186;23;20174;-90
2022/12/18 15:30:32;;;;;;;57.33;19.67;;;;;;;;;;6219097;22;20178;-92
2022/12/18 15:33:39;;;;;;;49.63;18.43;;;;;;;;;;6220105;23;20199;-90
2022/12/18 15:36:46;;;;;;;48.73;17.53;;;;;;;;;;6219469;22;20163;-89
2022/12/18 15:39:52;;;;;;;48.10;16.23;;;;;;;;;;6220600;22;20175;-89
2022/12/18 15:46:47;;;;;;;48.47;17.50;;;;;;;;;;6216656;23;20199;-90
2022/12/18 15:49:52;;;;;;;43.23;15.77;;;;;;;;;;6214417;23;20190;-89
2022/12/18 15:52:59;;;;;;;45.77;16.57;;;;;;;;;;6215788;23;20187;-92
2022/12/18 15:59:29;;;;;;;53.47;18.27;;;;;;;;;;6213985;22;20186;-90
2022/12/18 16:02:34;;;;;;;52.87;18.47;;;;;;;;;;6214303;22;20208;-91
2022/12/18 16:05:40;;;;;;;48.23;18.43;;;;;;;;;;6214580;22;20267;-89
2022/12/18 16:08:46;;;;;;;52.00;19.13;;;;;;;;;;6214596;22;20213;-90
2022/12/18 16:11:51;;;;;;;51.90;19.73;;;;;;;;;;6233099;22;20167;-89
2022/12/18 16:14:57;;;;;;;63.30;19.80;;;;;;;;;;6214776;23;20175;-90
2022/12/18 16:18:02;;;;;;;62.40;21.30;;;;;;;;;;6215197;22;20232;-88
2022/12/18 16:21:07;;;;;;;58.97;20.63;;;;;;;;;;6213046;22;20162;-90
2022/12/18 16:24:17;;;;;;;51.17;20.17;;;;;;;;;;6214319;23;20221;-90
2022/12/18 16:27:23;;;;;;;62.00;22.13;;;;;;;;;;6213436;23;20194;-88
2022/12/18 16:30:30;;;;;;;60.30;22.40;;;;;;;;;;6215293;22;20184;-89
2022/12/18 16:33:35;;;;;;;69.07;23.53;;;;;;;;;;6212892;22;20164;-90
2022/12/18 16:36:41;;;;;;;64.83;22.57;;;;;;;;;;6214927;23;20543;-91
2022/12/18 16:39:48;;;;;;;61.27;23.37;;;;;;;;;;6217305;23;20168;-88
2022/12/18 16:42:53;;;;;;;61.27;22.97;;;;;;;;;;6213256;23;20165;-91
2022/12/18 16:46:00;;;;;;;67.70;22.90;;;;;;;;;;6215551;23;20219;-92
2022/12/18 16:49:05;;;;;;;62.60;24.83;;;;;;;;;;6214119;22;20179;-89
2022/12/18 16:52:11;;;;;;;76.50;27.50;;;;;;;;;;6214740;23;20192;-91
2022/12/18 16:55:21;;;;;;;62.57;23.73;;;;;;;;;;6217207;23;20163;-89
2022/12/18 16:58:26;;;;;;;69.80;24.90;;;;;;;;;;6216295;23;20170;-90
2022/12/18 17:01:32;;;;;;;65.97;23.50;;;;;;;;;;6216715;22;20179;-89
2022/12/18 17:04:38;;;;;;;65.07;23.67;;;;;;;;;;6218648;22;20172;-90
2022/12/18 17:07:55;;;;;;;63.43;22.03;;;;;;;;;;6220096;23;20222;-91
2022/12/18 17:11:07;;;;;;;64.90;24.57;;;;;;;;;;6216207;23;20203;-91
2022/12/18 17:14:14;;;;;;;60.67;21.57;;;;;;;;;;6217936;23;20168;-87
2022/12/18 17:17:19;;;;;;;57.97;19.73;;;;;;;;;;6217777;22;20211;-89
2022/12/18 17:20:25;;;;;;;61.23;21.50;;;;;;;;;;6217388;23;20167;-89
2022/12/18 17:23:30;;;;;;;60.17;20.97;;;;;;;;;;6218748;23;20171;-90
2022/12/18 17:26:41;;;;;;;64.93;21.87;;;;;;;;;;6218401;23;20688;-90
2022/12/18 17:29:48;;;;;;;63.00;22.23;;;;;;;;;;6217603;23;20172;-88
2022/12/18 17:32:54;;;;;;;59.90;22.27;;;;;;;;;;6217061;23;20179;-89
2022/12/18 17:36:00;;;;;;;61.87;23.37;;;;;;;;;;6217996;22;20171;-89
2022/12/18 17:39:06;;;;;;;65.87;25.37;;;;;;;;;;6215818;23;20171;-90
2022/12/18 17:42:17;;;;;;;66.20;24.43;;;;;;;;;;6216523;23;20171;-89
2022/12/18 17:45:26;;;;;;;60.17;21.60;;;;;;;;;;6214332;23;20301;-89
2022/12/18 17:48:33;;;;;;;73.47;25.67;;;;;;;;;;6215398;22;20186;-92
2022/12/18 17:51:41;;;;;;;63.63;24.53;;;;;;;;;;6217820;23;20203;-89
2022/12/18 17:54:46;;;;;;;65.53;23.73;;;;;;;;;;6212654;23;20509;-90
2022/12/18 17:57:53;;;;;;;73.90;26.00;;;;;;;;;;6215786;22;20176;-91
2022/12/18 18:01:00;;;;;;;63.43;24.83;;;;;;;;;;6215389;23;20167;-90
2022/12/18 18:04:06;;;;;;;61.40;21.97;;;;;;;;;;6218209;23;20191;-91
2022/12/18 18:07:11;;;;;;;62.00;23.33;;;;;;;;;;6215650;23;20251;-90
2022/12/18 18:10:17;;;;;;;60.23;21.27;;;;;;;;;;6215788;23;20176;-88
2022/12/18 18:16:48;;;;;;;69.93;24.80;;;;;;;;;;6215074;22;20171;-89
2022/12/18 18:19:53;;;;;;;56.23;21.50;;;;;;;;;;6215349;22;20170;-89
2022/12/18 18:23:00;;;;;;;62.67;23.60;;;;;;;;;;6216908;22;20159;-89
2022/12/18 18:26:06;;;;;;;57.07;20.87;;;;;;;;;;6216281;22;20186;-89
2022/12/18 18:29:15;;;;;;;60.37;21.50;;;;;;;;;;6219006;23;20249;-91
2022/12/18 18:32:20;;;;;;;63.73;21.57;;;;;;;;;;6218325;23;20163;-91
2022/12/18 18:35:26;;;;;;;63.70;20.67;;;;;;;;;;6217213;23;20151;-90
2022/12/18 18:38:32;;;;;;;118.47;39.83;;;;;;;;;;6215843;23;20167;-90
2022/12/18 18:41:38;;;;;;;62.83;23.77;;;;;;;;;;6218781;23;20175;-88
2022/12/18 18:44:50;;;;;;;59.70;21.30;;;;;;;;;;6217181;23;20283;-89